Terminal Aerodrome Forecast
Issued by NWS Blacksburg, VA

Current Version | Previous Version | Graphics & Text | Print | Product List | Glossary On
Versions: 1 2 3 4 5 6 7 8 9 10 11 12 13 14 15 16 17 18 19 20
000
FTUS41 KRNK 222010 AAA
TAFBLF
TAF AMD
KBLF 222010Z 2220/2318 VRB03KT P6SM OVC040
      TEMPO 2220/2223 2SM -RA BR OVC020
     FM230000 17004KT 6SM BR OVC090
     FM230300 VRB03KT P6SM BKN090
     FM230700 VRB03KT P6SM BKN045
     FM231600 20004KT P6SM BKN035=

USA.gov is the U.S. government's official web portal to all federal, state and local government web resources and services.